Freeburg, Minnesota
Current Conditions -  °F | °C
As of 5:53 AM on Tuesday 27 Jan 2015 (Local Time) from KLSE Reporting Station
Overcast Overcast  
Wind Chill: 25°   Ceiling: 2100
Heat Index: 31°   Visibility: 10mi
Dew Point: 23°   Wind: 6mph
Humidity: 72%   Direction: 360°N
Pressure: 30.09"   Gusts: NA
Location:  43.6028°N, 91.445°W
Report Text: KLSE 271153Z 36005KT 10SM OVC021 M01/M05 A3009 RMK AO2 SLP203 70003 T10061050 10000 21011 51020
Loading
Personal Weather Stations






























Interactive Weather Map New forecast layout! Learn more

10-Day Weather Forecast

Advertisements
Track Severe Weather on mobile